메인 페이지
METAR-TAF:

METAR-TAF

공항 :

Tinker Air Force Base

오클라호마시티 / Tinker, 오클라호마, 미국

위도: 35-25N, 경도: 097-23W, 고도: 394m

현재 날씨관측

예보는 10분 전, 01:56시(UTC)에 발표되었습니다.
7kt
온도 0°C
습도 51%
기압 1029 hPa
시정: 16.1km
맑음

METAR: KTIK 270156Z AUTO 35007KT 10SM CLR 00/M09 A3038 RMK AO2 SLP307 T00011091 $

시각: 20:06 (02:06 UTC)

예보

예보는 8 시간 6분 전, 18:00시(UTC)에 발표되었습니다.
예보 대상 시간: 26일 18시부터 27일 24시까지 (UTC)
북북서15kt, 순간 최대 풍속 20kt
시정 10km 이상
고도 2700ft 상공 구름 많음
고도 4500ft 상공 구름 많음
전환 중
26일 20시부터 26일 21시까지 (UTC)
북북서10kt, 순간 최대 풍속 15kt
시정 10km 이상
고도 5000ft 상공 구름 보통
전환 중
27일 00시부터 27일 01시까지 (UTC)
여러 방향의 바람 6kt
시정 10km 이상
맑음
전환 중
27일 11시부터 27일 12시까지 (UTC)
남서10kt, 순간 최대 풍속 15kt
시정 10km 이상
고도 11000ft 상공 구름 보통

TAF: KTIK 261800Z 2618/2724 33015G20KT 9999 BKN027 BKN045 510023 QNH3038INS BECMG 2620/2621 33010G15KT 9999 SCT050 510013 QNH3035INS BECMG 2700/2701 VRB06KT 9999 SKC QNH3027INS BECMG 2711/2712 23010G15KT 9999 SCT110 QNH3017INS TX11/2718Z TNM02/2712Z

4,000개 이상의 공항 관측 자료 및 예보 (METAR 및 TAF 보고).

지도상에서 검색 가능한 기상관측소가 노란 점과 빨간 점으로 표시되어 있습니다.

기상관측소 명을 보려면 표시 위로 마우스를 이동하세요.

날씨 관측과 예보를 보려면 클릭하세요.

지도 변경 : 확대하려면 엑스 표시가 있는 녹색 버튼, 축소하려면 빼기 표시가 있는 녹색 버튼, 다음 페이지의 지도를 보려면 녹색 화살표를 클릭하세요.


METAR-TAF: